Airfield :
LOGIN :

Register | Disclaimer

   EN    FR    IT 

 










Legend :    VFR   Marginal VFR   IFR   Intensive IFR   Very Intensive IFR
Visi :
Ceiling :
>= 8 km
>= 3000ft
5 to 8 km
1000 to 3000 ft
1500m to 5 km
500 to 1000 ft
800 to 1500m
200 to 500 ft
< 800m
< 200 ft
Symbols :   Thunderstorms  Fog  Heavy snow  Heavy precipitations  Wind > 20 kt
SIGMETs :     Misc.  Thunderstorms  Icing  Turbulence  Mountain Waves  Volcanic Ashes







- Airport Elevation : 204 ft
- IATA code : AGF
- Download approach charts


LFBA - Agen

CURRENT METAR :
  • 150030Z AUTO 27005KT 9999 4600 +RA SCT020/// BKN031/// BKN045/// ///TCU 10/08 Q1007

EXPIRED METARs :
  • 150000Z AUTO 26007KT 9999 -RA BKN028 OVC042 10/08 Q1007
  • 142330Z AUTO 26011KT 9999 BKN032/// BKN041/// BKN050/// ///TCU 11/08 Q1007
  • 142300Z AUTO 24010KT 210V280 9999 SCT039/// BKN090/// BKN230/// ///TCU 11/07 Q1007
  • 142230Z AUTO 24010KT 200V270 9999 FEW037 SCT084 BKN240 10/07 Q1007
  • 142200Z AUTO 25006KT CAVOK 10/08 Q1007

TAF TAF LFBA
Valid from the 14 at 18:00 until the 15 at 03:00 UTC


141700Z 1418/1503 26009KT 9999 SCT030 BKN040
TEMPO 1418/1503 26015G25KT 4000 -SHRA BKN010 BKN018TCU
No reported NOTAMs for that airfield.
2 SIGMETs reported for the Bordeaux FIR (LFBB) :
 
Severe turbulence
LFBB SIGMET 9 VALID 142300/150300 LFPW
LFBB BORDEAUX FIR/UIR SEV TURB FCST WI N4700 E00215 - N4630 E00300 - N4430 E00245 - N4430 E00200 - N4645 E00115 - N4700 E00215 FL170/280 STNR WKN=
Severe turbulence
LFBB SIGMET 10 VALID 142300/150300 LFPW
LFBB BORDEAUX FIR/UIR SEV TURB FCST WI N4300 W00115 - N4300 W00145 - N4630 W00130 - N4630 W00100 - N4615 W00100 - N4300 W00115 SFC/FL050 STNR WKN=



MET'MAP, your aeronautical weather chart ! - Copyright ORBIFLY December 2007 - Disclaimer

ORBIFLY MET'MAP TEAM :

Programming & Development : Alexandra Zaïnal
Concept & Development : Baudouin d'Aumeries
Co-Development & Prog : Marc-Olivier Méhu
Technical & hardware support : Manuel Goepfert

Contact : metmap@orbifly.com




SOURCES & CREDITS :

   NOAA